createdAt,value
2023-01-11T00:00:39.466Z,55.29
2023-01-11T00:03:07.431Z,55.47
2023-01-11T00:05:39.583Z,55.35
2023-01-11T00:08:07.607Z,55.55
2023-01-11T00:10:34.961Z,55.32
2023-01-11T00:13:02.128Z,55.51
2023-01-11T00:15:29.071Z,55.68
2023-01-11T00:17:56.351Z,55.85
2023-01-11T00:20:23.224Z,55.72
2023-01-11T00:22:50.496Z,55.58
2023-01-11T00:25:17.456Z,55.65
2023-01-11T00:27:44.314Z,55.66
2023-01-11T00:30:11.917Z,55.77
2023-01-11T00:32:38.770Z,55.60
2023-01-11T00:35:06.041Z,55.79
2023-01-11T00:37:32.834Z,55.77
2023-01-11T00:39:59.708Z,55.93
2023-01-11T00:42:45.251Z,55.84
2023-01-11T00:45:30.939Z,56.13
2023-01-11T00:47:57.752Z,55.90
2023-01-11T00:50:30.703Z,56.06
2023-01-11T00:52:58.550Z,55.99
2023-01-11T00:55:26.274Z,55.81
2023-01-11T00:57:53.183Z,55.85
2023-01-11T01:00:21.596Z,56.02
2023-01-11T01:02:49.431Z,56.12
2023-01-11T01:05:17.632Z,56.00
2023-01-11T01:07:45.428Z,56.12
2023-01-11T01:10:14.831Z,56.24
2023-01-11T01:13:00.518Z,56.08
2023-01-11T01:15:27.563Z,56.36
2023-01-11T01:17:55.568Z,56.41
2023-01-11T01:20:24.220Z,56.24
2023-01-11T01:22:51.825Z,56.46
2023-01-11T01:25:18.956Z,56.48
2023-01-11T01:27:45.885Z,56.12
2023-01-11T01:30:12.892Z,56.48
2023-01-11T01:32:40.139Z,56.26
2023-01-11T01:35:08.038Z,56.24
2023-01-11T01:37:34.883Z,56.49
2023-01-11T01:40:01.707Z,56.63
2023-01-11T01:42:28.741Z,56.58
2023-01-11T01:45:01.000Z,56.53
2023-01-11T01:47:52.325Z,56.49
2023-01-11T01:50:42.095Z,56.74
2023-01-11T01:53:14.642Z,56.58
2023-01-11T01:55:45.641Z,56.45
2023-01-11T01:58:19.789Z,56.84
2023-01-11T02:00:46.813Z,56.85
2023-01-11T02:03:21.045Z,56.74
2023-01-11T02:05:50.347Z,56.73
2023-01-11T02:08:24.987Z,56.49
2023-01-11T02:10:53.497Z,56.68
2023-01-11T02:13:21.512Z,56.92
2023-01-11T02:16:08.133Z,56.59
2023-01-11T02:18:37.164Z,57.15
2023-01-11T02:21:06.826Z,56.85
2023-01-11T02:23:50.553Z,56.56
2023-01-11T02:26:35.625Z,56.94
2023-01-11T02:29:05.845Z,56.74
2023-01-11T02:32:01.486Z,57.13
2023-01-11T02:34:42.040Z,56.93
2023-01-11T02:37:20.482Z,57.09
2023-01-11T02:39:53.351Z,56.87
2023-01-11T02:42:56.173Z,57.15
2023-01-11T02:45:56.744Z,56.77
2023-01-11T02:48:28.814Z,56.68
2023-01-11T02:51:06.185Z,56.77
2023-01-11T02:53:48.917Z,56.80
2023-01-11T02:56:25.790Z,56.88
2023-01-11T02:58:56.020Z,56.91
2023-01-11T03:01:23.733Z,57.10
2023-01-11T03:03:50.798Z,56.93
2023-01-11T03:06:22.098Z,56.91
2023-01-11T03:08:57.706Z,56.87
2023-01-11T03:12:01.300Z,56.93
2023-01-11T03:14:33.949Z,56.87
2023-01-11T03:17:09.751Z,56.88
2023-01-11T03:20:05.827Z,57.26
2023-01-11T03:22:41.014Z,56.94
2023-01-11T03:25:17.453Z,56.91
2023-01-11T03:27:44.178Z,56.85
2023-01-11T03:30:35.525Z,56.77
2023-01-11T03:33:04.971Z,57.20
2023-01-11T03:35:53.611Z,57.03
2023-01-11T03:38:46.367Z,57.17
2023-01-11T03:41:27.411Z,56.95
2023-01-11T03:43:57.178Z,56.80
2023-01-11T03:46:39.242Z,56.89
2023-01-11T03:49:11.608Z,56.83
2023-01-11T03:51:46.555Z,56.92
2023-01-11T03:54:22.971Z,56.98
2023-01-11T03:56:56.713Z,56.97
2023-01-11T03:59:23.570Z,57.00
2023-01-11T04:01:53.831Z,57.03
2023-01-11T04:04:20.630Z,56.97
2023-01-11T04:06:47.609Z,57.02
2023-01-11T04:09:14.586Z,56.97
2023-01-11T04:11:41.585Z,56.91
2023-01-11T04:14:08.715Z,56.79
2023-01-11T04:16:35.642Z,56.89
2023-01-11T04:19:03.146Z,57.13
2023-01-11T04:21:30.247Z,56.86
2023-01-11T04:23:57.090Z,56.74
2023-01-11T04:26:23.831Z,57.04
2023-01-11T04:28:52.801Z,57.19
2023-01-11T04:31:20.979Z,56.84
2023-01-11T04:33:47.829Z,56.87
2023-01-11T04:36:14.903Z,56.94
2023-01-11T04:38:41.931Z,56.93
2023-01-11T04:41:27.387Z,56.94
2023-01-11T04:43:56.480Z,56.93
2023-01-11T04:46:24.765Z,56.87
2023-01-11T04:48:52.255Z,57.00
2023-01-11T04:51:19.163Z,57.08
2023-01-11T04:53:49.301Z,57.04
2023-01-11T04:56:17.208Z,56.96
2023-01-11T04:58:44.795Z,57.05
2023-01-11T05:01:14.680Z,56.71
2023-01-11T05:03:41.576Z,56.63
2023-01-11T05:06:08.812Z,56.94
2023-01-11T05:08:36.269Z,56.90
2023-01-11T05:11:06.516Z,56.81
2023-01-11T05:13:42.506Z,56.81
2023-01-11T05:16:15.258Z,56.66
2023-01-11T05:18:44.461Z,56.60
2023-01-11T05:21:13.870Z,56.74
2023-01-11T05:23:42.052Z,56.39
2023-01-11T05:26:23.046Z,56.69
2023-01-11T05:28:51.501Z,56.56
2023-01-11T05:31:19.169Z,56.83
2023-01-11T05:33:46.413Z,56.81
2023-01-11T05:36:15.844Z,56.51
2023-01-11T05:38:42.974Z,56.67
2023-01-11T05:41:10.817Z,55.56
2023-01-11T05:43:56.687Z,55.23
2023-01-11T05:46:25.478Z,54.99
2023-01-11T05:48:54.602Z,54.97
2023-01-11T05:51:21.847Z,55.14
2023-01-11T05:53:49.070Z,54.82
2023-01-11T05:56:16.026Z,54.59
2023-01-11T05:58:42.981Z,54.39
2023-01-11T06:01:12.999Z,54.52
2023-01-11T06:03:39.872Z,54.59
2023-01-11T06:06:07.395Z,54.68
2023-01-11T06:08:34.224Z,53.58
2023-01-11T06:11:01.411Z,52.62
2023-01-11T06:13:28.318Z,53.75
2023-01-11T06:16:05.856Z,54.08
2023-01-11T06:18:35.407Z,54.46
2023-01-11T06:21:02.802Z,54.41
2023-01-11T06:23:31.127Z,54.80
2023-01-11T06:26:01.836Z,54.90
2023-01-11T06:28:28.747Z,55.21
2023-01-11T06:30:57.317Z,55.08
2023-01-11T06:33:26.419Z,55.22
2023-01-11T06:35:54.249Z,55.50
2023-01-11T06:38:22.847Z,55.77
2023-01-11T06:40:58.376Z,55.81
2023-01-11T06:43:26.073Z,55.96
2023-01-11T06:45:53.359Z,55.58
2023-01-11T06:48:22.557Z,56.23
2023-01-11T06:50:54.999Z,55.74
2023-01-11T06:53:22.996Z,55.76
2023-01-11T06:55:51.430Z,55.74
2023-01-11T06:58:18.610Z,55.63
2023-01-11T07:00:45.709Z,55.77
2023-01-11T07:03:15.449Z,55.55
2023-01-11T07:05:45.112Z,55.81
2023-01-11T07:08:12.269Z,55.59
2023-01-11T07:10:39.173Z,55.31
2023-01-11T07:13:06.216Z,55.21
2023-01-11T07:15:33.344Z,55.44
2023-01-11T07:18:00.539Z,56.99
2023-01-11T07:20:28.485Z,57.30
2023-01-11T07:22:59.880Z,56.96
2023-01-11T07:25:28.095Z,57.17
2023-01-11T07:27:59.754Z,57.57
2023-01-11T07:30:29.398Z,56.58
2023-01-11T07:32:58.868Z,56.06
2023-01-11T07:35:28.198Z,54.27
2023-01-11T07:37:55.870Z,54.63
2023-01-11T07:40:22.741Z,54.90
2023-01-11T07:43:14.916Z,54.98
2023-01-11T07:45:46.389Z,54.64
2023-01-11T07:48:15.686Z,54.79
2023-01-11T07:50:45.003Z,54.58
2023-01-11T07:53:13.341Z,54.59
2023-01-11T07:55:41.207Z,54.35
2023-01-11T07:58:15.518Z,54.35
2023-01-11T08:00:42.727Z,54.84
2023-01-11T08:03:10.278Z,54.64
2023-01-11T08:05:37.663Z,54.64
2023-01-11T08:08:06.008Z,54.64
2023-01-11T08:10:33.408Z,54.73
2023-01-11T08:13:19.232Z,54.61
2023-01-11T08:15:46.260Z,54.59
2023-01-11T08:18:13.476Z,54.89
2023-01-11T08:20:41.255Z,54.84
2023-01-11T08:23:10.587Z,54.63
2023-01-11T08:25:38.339Z,55.15
2023-01-11T08:28:07.618Z,54.94
2023-01-11T08:30:35.622Z,55.05
2023-01-11T08:33:03.020Z,54.95
2023-01-11T08:35:30.939Z,55.12
2023-01-11T08:37:58.094Z,54.93
2023-01-11T08:40:25.953Z,54.76
2023-01-11T08:42:59.233Z,55.13
2023-01-11T08:45:26.727Z,54.94
2023-01-11T08:47:54.316Z,54.97
2023-01-11T08:50:22.555Z,55.13
2023-01-11T08:52:51.475Z,54.98
2023-01-11T08:55:19.619Z,54.55
2023-01-11T08:57:46.766Z,54.57
2023-01-11T09:00:14.315Z,54.87
2023-01-11T09:02:41.579Z,54.74
2023-01-11T09:05:09.333Z,54.80
2023-01-11T09:07:36.399Z,54.96
2023-01-11T09:10:03.828Z,54.75
2023-01-11T09:12:32.962Z,54.74
2023-01-11T09:15:00.210Z,54.91
2023-01-11T09:17:27.428Z,54.94
2023-01-11T09:19:54.557Z,54.72
2023-01-11T09:22:21.564Z,54.83
2023-01-11T09:24:48.628Z,54.83
2023-01-11T09:27:15.860Z,54.94
2023-01-11T09:29:42.985Z,54.69
2023-01-11T09:32:10.067Z,54.51
2023-01-11T09:34:37.190Z,54.35
2023-01-11T09:37:07.235Z,54.30
2023-01-11T09:39:35.453Z,54.40
2023-01-11T09:42:15.520Z,54.23
2023-01-11T09:44:51.284Z,54.43
2023-01-11T09:47:29.829Z,54.43
2023-01-11T09:50:00.988Z,54.60
2023-01-11T09:52:33.232Z,54.29
2023-01-11T09:55:01.675Z,54.56
2023-01-11T09:57:38.518Z,54.40
2023-01-11T10:00:33.404Z,54.44
2023-01-11T10:03:45.149Z,54.58
2023-01-11T10:06:42.727Z,54.53
2023-01-11T10:18:39.531Z,54.43
2023-01-11T10:19:31.635Z,54.70
2023-01-11T10:22:16.769Z,54.45
2023-01-11T10:24:58.011Z,54.37
2023-01-11T10:27:24.899Z,54.21
2023-01-11T10:30:10.951Z,54.33
2023-01-11T10:32:47.825Z,54.15
2023-01-11T10:35:30.418Z,54.13
2023-01-11T10:38:26.896Z,54.06
2023-01-11T10:41:04.608Z,53.93
2023-01-11T10:43:38.317Z,53.94
2023-01-11T10:46:15.779Z,54.26
2023-01-11T10:48:44.549Z,53.93
2023-01-11T10:51:27.436Z,54.10
2023-01-11T10:54:27.735Z,54.06
2023-01-11T10:57:14.588Z,54.26
2023-01-11T11:00:09.779Z,54.29
2023-01-11T11:02:45.584Z,54.22
2023-01-11T11:05:37.273Z,54.13
2023-01-11T11:08:26.821Z,54.21
2023-01-11T11:11:11.711Z,54.36
2023-01-11T11:14:02.624Z,54.20
2023-01-11T11:17:00.923Z,53.77
2023-01-11T11:19:33.510Z,53.98
2023-01-11T11:22:01.077Z,54.34
2023-01-11T11:24:36.375Z,54.58
2023-01-11T11:27:33.353Z,54.28
2023-01-11T11:30:01.005Z,54.63
2023-01-11T11:32:37.260Z,54.66
2023-01-11T11:35:05.303Z,54.73
2023-01-11T11:37:41.091Z,54.68
2023-01-11T11:40:30.877Z,54.81
2023-01-11T11:43:26.661Z,54.74
2023-01-11T11:46:00.005Z,54.57
2023-01-11T11:48:31.652Z,54.58
2023-01-11T11:51:03.788Z,54.78
2023-01-11T11:53:39.356Z,54.72
2023-01-11T11:56:31.288Z,54.92
2023-01-11T11:58:59.817Z,54.70
2023-01-11T12:01:40.615Z,55.10
2023-01-11T12:04:16.302Z,55.59
2023-01-11T12:06:44.609Z,56.05
2023-01-11T12:09:19.083Z,55.60
2023-01-11T12:11:48.381Z,55.93
2023-01-11T12:14:23.262Z,55.69
2023-01-11T12:16:50.502Z,54.86
2023-01-11T12:19:34.751Z,54.89
2023-01-11T12:22:16.841Z,53.04
2023-01-11T12:24:44.097Z,52.87
2023-01-11T12:27:24.945Z,53.68
2023-01-11T12:30:00.805Z,53.88
2023-01-11T12:33:03.000Z,54.10
2023-01-11T12:35:46.118Z,54.41
2023-01-11T12:38:22.868Z,54.45
2023-01-11T12:41:08.758Z,54.52
2023-01-11T12:44:04.680Z,54.45
2023-01-11T12:47:17.906Z,53.45
2023-01-11T12:50:07.069Z,54.30
2023-01-11T12:53:12.542Z,54.34
2023-01-11T12:55:52.153Z,54.48
2023-01-11T12:58:41.291Z,54.35
2023-01-11T13:01:27.427Z,54.40
2023-01-11T13:04:21.648Z,54.39
2023-01-11T13:07:00.819Z,54.61
2023-01-11T13:09:45.838Z,54.57
2023-01-11T13:12:30.566Z,54.53
2023-01-11T13:15:17.986Z,54.53
2023-01-11T13:17:53.241Z,54.77
2023-01-11T13:20:40.397Z,54.47
2023-01-11T13:23:22.465Z,54.74
2023-01-11T13:25:52.030Z,54.52
2023-01-11T13:28:34.129Z,54.38
2023-01-11T13:31:07.498Z,56.36
2023-01-11T13:33:45.223Z,56.16
2023-01-11T13:36:23.582Z,56.44
2023-01-11T13:39:10.436Z,56.76
2023-01-11T13:41:47.466Z,56.65
2023-01-11T13:45:01.151Z,56.64
2023-01-11T13:47:37.147Z,56.47
2023-01-11T13:50:12.332Z,56.53
2023-01-11T13:52:46.396Z,56.83
2023-01-11T13:55:25.286Z,56.49
2023-01-11T13:58:05.652Z,56.78
2023-01-11T14:00:49.102Z,56.58
2023-01-11T14:03:45.812Z,56.42
2023-01-11T14:06:31.727Z,56.45
2023-01-11T14:09:17.389Z,56.84
2023-01-11T14:11:54.157Z,56.50
2023-01-11T14:14:37.535Z,56.53
2023-01-11T14:17:08.028Z,56.45
2023-01-11T14:19:43.372Z,56.58
2023-01-11T14:22:22.561Z,56.64
2023-01-11T14:25:25.002Z,56.48
2023-01-11T14:28:22.600Z,56.40
2023-01-11T14:31:28.418Z,56.49
2023-01-11T14:34:14.205Z,56.33
2023-01-11T14:37:14.945Z,56.29
2023-01-11T14:39:47.970Z,56.45
2023-01-11T14:42:30.418Z,56.18
2023-01-11T14:45:14.018Z,56.18
2023-01-11T14:47:59.304Z,55.85
2023-01-11T14:51:00.722Z,56.17
2023-01-11T14:53:30.529Z,55.93
2023-01-11T14:55:57.861Z,55.88
2023-01-11T14:58:32.539Z,55.69
2023-01-11T15:01:06.294Z,55.94
2023-01-11T15:03:43.566Z,55.61
2023-01-11T15:06:21.014Z,55.91
2023-01-11T15:08:55.779Z,55.86
2023-01-11T15:11:37.837Z,55.97
2023-01-11T15:14:21.249Z,55.75
2023-01-11T15:17:12.697Z,55.80
2023-01-11T15:19:41.719Z,55.58
2023-01-11T15:22:28.939Z,55.44
2023-01-11T15:25:00.525Z,55.97
2023-01-11T15:27:34.039Z,56.23
2023-01-11T15:30:02.041Z,56.14
2023-01-11T15:32:31.974Z,56.01
2023-01-11T15:35:18.265Z,56.02
2023-01-11T15:37:50.906Z,56.11
2023-01-11T15:40:26.960Z,56.37
2023-01-11T15:43:12.918Z,56.12
2023-01-11T15:46:32.724Z,56.42
2023-01-11T15:49:34.931Z,56.23
2023-01-11T15:52:24.979Z,56.31
2023-01-11T15:55:10.262Z,56.54
2023-01-11T15:58:14.902Z,56.75
2023-01-11T16:01:20.462Z,56.73
2023-01-11T16:04:12.234Z,56.59
2023-01-11T16:06:47.166Z,56.56
2023-01-11T16:10:03.047Z,56.90
2023-01-11T16:12:30.286Z,56.96
2023-01-11T16:15:17.480Z,57.12
2023-01-11T16:17:48.611Z,57.28
2023-01-11T16:20:27.232Z,57.18
2023-01-11T16:23:00.247Z,56.90
2023-01-11T16:25:37.514Z,57.21
2023-01-11T16:28:06.589Z,56.93
2023-01-11T16:30:34.813Z,57.24
2023-01-11T16:33:23.432Z,57.00
2023-01-11T16:36:02.667Z,57.25
2023-01-11T16:38:31.584Z,57.67
2023-01-11T16:41:00.139Z,57.50
2023-01-11T16:43:30.840Z,57.62
2023-01-11T16:45:58.186Z,57.29
2023-01-11T16:48:27.636Z,57.81
2023-01-11T16:51:08.879Z,57.52
2023-01-11T16:53:40.294Z,57.50
2023-01-11T16:56:17.466Z,57.87
2023-01-11T16:58:44.920Z,57.76
2023-01-11T17:01:14.227Z,57.94
2023-01-11T17:03:47.434Z,57.57
2023-01-11T17:06:21.310Z,58.17
2023-01-11T17:08:55.493Z,57.85
2023-01-11T17:11:42.640Z,54.24
2023-01-11T17:14:43.527Z,54.08
2023-01-11T17:17:12.845Z,54.87
2023-01-11T17:19:46.420Z,55.71
2023-01-11T17:22:18.185Z,55.72
2023-01-11T17:25:06.708Z,55.75
2023-01-11T17:27:40.974Z,56.14
2023-01-11T17:30:25.606Z,56.00
2023-01-11T17:32:55.166Z,56.08
2023-01-11T17:35:23.471Z,55.81
2023-01-11T17:37:57.660Z,56.03
2023-01-11T17:40:34.376Z,55.86
2023-01-11T17:43:42.214Z,55.07
2023-01-11T17:46:18.574Z,55.82
2023-01-11T17:48:54.407Z,55.97
2023-01-11T17:51:31.704Z,55.99
2023-01-11T17:53:58.950Z,55.93
2023-01-11T17:56:39.791Z,56.27
2023-01-11T17:59:19.002Z,56.21
2023-01-11T18:01:49.447Z,56.63
2023-01-11T18:04:22.330Z,56.43
2023-01-11T18:06:53.291Z,56.22
2023-01-11T18:09:33.944Z,54.39
2023-01-11T18:12:37.697Z,56.26
2023-01-11T18:15:06.845Z,56.49
2023-01-11T18:17:36.482Z,56.24
2023-01-11T18:20:15.502Z,56.17
2023-01-11T18:22:54.625Z,56.25
2023-01-11T18:25:29.307Z,56.53
2023-01-11T18:28:11.790Z,56.62
2023-01-11T18:30:40.510Z,56.52
2023-01-11T18:33:36.164Z,56.35
2023-01-11T18:36:05.676Z,56.52
2023-01-11T18:38:36.378Z,56.35
2023-01-11T18:41:28.658Z,56.37
2023-01-11T18:43:56.193Z,56.28
2023-01-11T18:46:23.784Z,56.20
2023-01-11T18:48:50.815Z,56.11
2023-01-11T18:51:27.561Z,55.76
2023-01-11T18:53:54.460Z,55.80
2023-01-11T18:56:21.393Z,55.58
2023-01-11T18:58:48.636Z,55.51
2023-01-11T19:01:15.604Z,55.43
2023-01-11T19:03:44.676Z,55.45
2023-01-11T19:06:13.780Z,55.52
2023-01-11T19:08:40.874Z,55.90
2023-01-11T19:11:08.149Z,55.36
2023-01-11T19:13:35.844Z,55.37
2023-01-11T19:16:03.188Z,55.41
2023-01-11T19:18:30.998Z,55.30
2023-01-11T19:21:03.314Z,55.31
2023-01-11T19:23:31.476Z,55.04
2023-01-11T19:26:00.127Z,55.08
2023-01-11T19:28:28.249Z,54.88
2023-01-11T19:30:57.046Z,54.86
2023-01-11T19:33:25.129Z,55.16
2023-01-11T19:35:52.365Z,54.94
2023-01-11T19:38:20.820Z,55.81
2023-01-11T19:40:50.466Z,55.30
2023-01-11T19:43:18.076Z,55.47
2023-01-11T19:45:45.482Z,55.33
2023-01-11T19:48:12.776Z,55.52
2023-01-11T19:50:39.759Z,55.62
2023-01-11T19:53:07.246Z,55.24
2023-01-11T19:55:34.324Z,55.25
2023-01-11T19:58:03.268Z,55.52
2023-01-11T20:00:30.678Z,55.35
2023-01-11T20:03:07.011Z,55.34
2023-01-11T20:05:34.576Z,55.49
2023-01-11T20:08:02.233Z,55.59
2023-01-11T20:10:29.755Z,55.64
2023-01-11T20:12:57.538Z,55.62
2023-01-11T20:15:28.489Z,55.56
2023-01-11T20:17:56.156Z,55.40
2023-01-11T20:20:23.939Z,55.55
2023-01-11T20:22:52.373Z,55.34
2023-01-11T20:25:19.901Z,55.28
2023-01-11T20:27:47.387Z,55.54
2023-01-11T20:30:14.795Z,55.71
2023-01-11T20:32:44.363Z,55.49
2023-01-11T20:35:16.783Z,55.62
2023-01-11T20:37:44.114Z,54.96
2023-01-11T20:40:14.257Z,54.37
2023-01-11T20:42:43.422Z,54.25
2023-01-11T20:45:12.778Z,54.02
2023-01-11T20:47:43.057Z,53.93
2023-01-11T20:50:14.969Z,54.12
2023-01-11T20:52:42.422Z,53.77
2023-01-11T20:55:12.297Z,54.08
2023-01-11T20:57:41.520Z,54.14
2023-01-11T21:00:16.483Z,54.18
2023-01-11T21:02:45.039Z,54.35
2023-01-11T21:05:15.081Z,54.48
2023-01-11T21:07:44.540Z,54.60
2023-01-11T21:10:14.307Z,54.77
2023-01-11T21:12:43.122Z,55.11
2023-01-11T21:15:12.145Z,55.45
2023-01-11T21:17:45.328Z,55.45
2023-01-11T21:20:15.741Z,56.02
2023-01-11T21:22:43.923Z,55.99
2023-01-11T21:25:12.465Z,56.00
2023-01-11T21:27:46.798Z,55.66
2023-01-11T21:30:21.582Z,55.64
2023-01-11T21:32:50.546Z,55.27
2023-01-11T21:35:18.334Z,55.22
2023-01-11T21:37:46.268Z,55.15
2023-01-11T21:40:15.769Z,54.97
2023-01-11T21:42:44.124Z,54.84
2023-01-11T21:45:13.549Z,54.82
2023-01-11T21:47:44.312Z,54.73
2023-01-11T21:50:11.927Z,54.47
2023-01-11T21:52:40.824Z,54.13
2023-01-11T21:55:13.567Z,54.14
2023-01-11T21:57:40.968Z,53.98
2023-01-11T22:00:12.869Z,53.70
2023-01-11T22:02:40.822Z,53.66
2023-01-11T22:05:12.464Z,53.67
2023-01-11T22:07:41.791Z,53.75
2023-01-11T22:10:10.899Z,53.69
2023-01-11T22:12:38.459Z,53.62
2023-01-11T22:15:11.188Z,53.52
2023-01-11T22:17:39.745Z,53.54
2023-01-11T22:20:09.422Z,53.73
2023-01-11T22:22:37.702Z,53.53
2023-01-11T22:25:07.450Z,53.68
2023-01-11T22:27:37.621Z,53.69
2023-01-11T22:30:09.773Z,53.54
2023-01-11T22:32:40.502Z,53.58
2023-01-11T22:35:10.713Z,53.71
2023-01-11T22:37:39.679Z,53.64
2023-01-11T22:40:09.660Z,53.74
2023-01-11T22:42:37.471Z,53.90
2023-01-11T22:45:06.467Z,53.70
2023-01-11T22:47:35.389Z,52.95
2023-01-11T22:50:04.103Z,53.06
2023-01-11T22:52:34.161Z,53.16
2023-01-11T22:55:01.499Z,53.04
2023-01-11T22:57:31.844Z,53.58
2023-01-11T22:59:59.032Z,53.69
2023-01-11T23:02:26.690Z,54.00
2023-01-11T23:04:54.660Z,54.12
2023-01-11T23:07:22.259Z,54.10
2023-01-11T23:09:49.383Z,54.18
2023-01-11T23:12:35.479Z,54.13
2023-01-11T23:15:02.611Z,54.28
2023-01-11T23:17:32.329Z,54.39
2023-01-11T23:19:59.643Z,54.45
2023-01-11T23:22:26.772Z,54.68
2023-01-11T23:24:55.315Z,54.54
2023-01-11T23:27:22.657Z,54.75
2023-01-11T23:29:49.733Z,54.63
2023-01-11T23:32:16.931Z,54.57
2023-01-11T23:34:44.168Z,54.71
2023-01-11T23:37:11.269Z,54.70
2023-01-11T23:39:38.619Z,54.73
2023-01-11T23:42:24.225Z,54.70
2023-01-11T23:44:51.467Z,54.65
2023-01-11T23:47:21.668Z,54.76
2023-01-11T23:49:53.878Z,54.76
2023-01-11T23:52:24.364Z,54.77
2023-01-11T23:54:52.210Z,54.80
2023-01-11T23:57:20.616Z,54.43
2023-01-11T23:59:48.433Z,54.75
